Heat Index [SAI AWOS/ASOS Display]_________FAA Disclaimer: "Not for use in aviation at this time______________" Untitled Document
Indianapolis Executive Airport IN
360
00:38
18/07/18
08
N/A
N/A
30.05
2000
922
74(F), 23(C)
62(F), 17(C)
76 F
69%
BKN050
10
N/A
N/A
N/A
00:38 zulu Wind 360 at 08 Knots, Altimeter 30.05
METAR KTYQ 180038Z AUTO 36008KT 10SM BKN050 23/17 A3005 A02
METAR:
FAA Disclaimer--Advisory Use ONLY, not for flight info-- 2/21/2009: Airport FBO 317-769-3288... New URL for smartphones... http://www.saiawos2.com/TYQ
INFO:
Wind Direction:
Wind Speed:
Wind Gust:
Wind Variable:
Altimeter:
Dens Alt:
Elev:
Temp:
Dwpt:
Heat Index
Rel Humidity:
Ceiling:
Visibility:
Prsnt Wea:
PCPN:
Remarks:
How to read the WebPage